Flight Track Log - Related Links

Times and Time Zones

All times are in EDT time to prevent confusion due to time zone crossing. See the DAL2070 flight status page for this flight to view local times or setup timezone preferences in your user account.

Time Position Orientation Groundspeed Altitude Reporting Facility
EDT Latitude Longitude Course Direction KTS MPH feet Rate Location/Type
Thu 11:27:57 PM 44.8333 -93.1167 233° Southwest 259 298 3,300  Level Minneapolis TRACON
Thu 11:29:00 PM 44.6688 -93.6469 227° Southwest  Level FlightAware Approximate
Thu 11:29:01 PM 44.7778 -93.0881 160° South 264 304 5,400  Level Minneapolis Center
Thu 11:30:00 PM 44.5991 -93.7988 237° Southwest  Level FlightAware Approximate
Thu 11:30:02 PM 44.7458 -93.1775 243° Southwest 260 299 7,900  Level Minneapolis Center
Thu 11:31:00 PM 44.5159 -93.9349 235° Southwest  Level FlightAware Approximate
Thu 11:31:04 PM 44.7178 -93.2894 251° West 283 326 10,500  Level Minneapolis Center
Thu 11:32:00 PM 44.4421 -94.0826 235° Southwest  Level FlightAware Approximate
Thu 11:32:05 PM 44.6881 -93.4125 251° West 336 387 11,400  Level Minneapolis Center
Thu 11:33:00 PM 44.3676 -94.2293 233° Southwest  Level FlightAware Approximate
Thu 11:33:07 PM 44.6556 -93.5500 252° West 370 426 13,200  Level Minneapolis Center
Thu 11:34:08 PM 44.6067 -93.6853 243° Southwest 394 453 15,100 1,672 Climbing Minneapolis Center
Thu 11:35:09 PM 44.5431 -93.8161 236° Southwest 408 470 16,600 1,659 Climbing Minneapolis Center
Thu 11:36:11 PM 44.4772 -93.9506 236° Southwest 418 481 18,500 1,707 Climbing Minneapolis Center
Thu 11:37:12 PM 44.4111 -94.0850 235° Southwest 420 483 20,100 1,659 Climbing Minneapolis Center
Thu 11:38:14 PM 44.3289 -94.2519 235° Southwest 432 497 21,900 1,366 Climbing Minneapolis Center
Thu 11:39:15 PM 44.2575 -94.3933 235° Southwest 444 511 22,900 1,030 Climbing Minneapolis Center
Thu 11:40:28 PM 44.1861 -94.5369 235° Southwest 451 519 24,200 1,289 Climbing Minneapolis Center
Thu 11:41:30 PM 44.1050 -94.6975 235° Southwest 450 518 25,800 1,463 Climbing Minneapolis Center
Thu 11:42:31 PM 44.0344 -94.8383 235° Southwest 445 512 27,200 1,328 Climbing Minneapolis Center
Thu 11:43:32 PM 43.9625 -94.9758 234° Southwest 441 507 28,500 1,366 Climbing Minneapolis Center
Thu 11:44:34 PM 43.8786 -95.1408 235° Southwest 437 503 30,000 732 Climbing Minneapolis Center
Thu 11:45:35 PM 43.8089 -95.2767 235° Southwest 433 498 30,000  Level Minneapolis Center
Thu 11:46:36 PM 43.7383 -95.4119 234° Southwest 432 497 30,000  Level Minneapolis Center
Thu 11:47:37 PM 43.6681 -95.5483 235° Southwest 434 499 30,000  Level Minneapolis Center
Thu 11:48:39 PM 43.5964 -95.6847 234° Southwest 437 503 30,000  Level Minneapolis Center
Thu 11:49:40 PM 43.5256 -95.8225 235° Southwest 438 504 30,000  Level Minneapolis Center
Thu 11:50:41 PM 43.4539 -95.9583 234° Southwest 438 504 30,000  Level Minneapolis Center
Thu 11:51:42 PM 43.3978 -96.0661 234° Southwest 435 501 30,000  Level Minneapolis Center
Thu 11:52:55 PM 43.3117 -96.2297 234° Southwest 438 504 30,000  Level Minneapolis Center
Thu 11:53:56 PM 43.2397 -96.3650 234° Southwest 438 504 30,000  Level Minneapolis Center
Thu 11:54:58 PM 43.1533 -96.5272 234° Southwest 439 505 30,000  Level Minneapolis Center
Thu 11:55:59 PM 43.0808 -96.6622 234° Southwest 441 507 30,000  Level Minneapolis Center
Thu 11:57:00 PM 42.9931 -96.8239 233° Southwest 441 507 30,000  Level Minneapolis Center
Thu 11:58:01 PM 42.9350 -96.9339 234° Southwest 445 512 30,000  Level Minneapolis Center
Thu 11:59:02 PM 42.8469 -97.0928 233° Southwest 440 506 30,000  Level Minneapolis Center
Fri 12:00:04 AM 42.7742 -97.2286 234° Southwest 442 509 30,000  Level Minneapolis Center
Fri 12:01:05 AM 42.7008 -97.3614 233° Southwest 442 509 30,000  Level Minneapolis Center
Fri 12:02:06 AM 42.6250 -97.5008 234° Southwest 440 506 30,000  Level Minneapolis Center
Fri 12:03:19 AM 42.5508 -97.6353 233° Southwest 444 511 30,000  Level Minneapolis Center
Fri 12:04:20 AM 42.4622 -97.7969 233° Southwest 446 513 30,000  Level Minneapolis Center
Fri 12:05:21 AM 42.3944 -97.9203 233° Southwest 447 514 30,000  Level Minneapolis Center
Fri 12:06:22 AM 42.3036 -98.0797 232° Southwest 447 514 30,000  Level Minneapolis Center
Fri 12:07:23 AM 42.2292 -98.2139 233° Southwest 447 514 30,000  Level Minneapolis Center
Fri 12:08:24 AM 42.1542 -98.3467 233° Southwest 446 513 30,000  Level Minneapolis Center
Fri 12:09:37 AM 42.0781 -98.4811 233° Southwest 451 519 30,000  Level Minneapolis Center
Fri 12:10:38 AM 41.9875 -98.6397 233° Southwest 448 516 30,000  Level Minneapolis Center
Fri 12:11:39 AM 41.9103 -98.7736 232° Southwest 452 520 30,000  Level Minneapolis Center
Fri 12:12:40 AM 41.8342 -98.9067 233° Southwest 452 520 30,000  Level Minneapolis Center
Fri 12:13:53 AM 41.7428 -99.0647 232° Southwest 450 518 30,000  Level Minneapolis Center
Fri 12:14:54 AM 41.6656 -99.1967 232° Southwest 451 519 30,000  Level Minneapolis Center
Fri 12:15:55 AM 41.5889 -99.3289 232° Southwest 453 521 30,000  Level Minneapolis Center
Fri 12:16:56 AM 41.5267 -99.4347 232° Southwest 455 524 30,000  Level Minneapolis Center
Fri 12:17:57 AM 41.4175 -99.6208 232° Southwest 457 526 30,000  Level Minneapolis Center
Fri 12:18:58 AM 41.3392 -99.7528 232° Southwest 456 525 30,000  Level Minneapolis Center
Fri 12:19:59 AM 41.2614 -99.8856 232° Southwest 457 526 30,000  Level Minneapolis Center
Fri 12:21:00 AM 41.1819 -100.0183 232° Southwest 459 528 30,000  Level Minneapolis Center
Fri 12:22:00 AM 41.1025 -100.1511 232° Southwest 461 531 30,000  Level Minneapolis Center
Fri 12:23:01 AM 41.0217 -100.2836 231° Southwest 461 531 30,000  Level Minneapolis Center
Fri 12:24:02 AM 40.9575 -100.3906 232° Southwest 463 533 30,000  Level Minneapolis Center
Fri 12:25:03 AM 40.8608 -100.5494 231° Southwest 462 532 30,000  Level Minneapolis Center
Fri 12:26:17 AM 40.7481 -100.7244 230° Southwest 476 548 30,000  Level Denver Center
Fri 12:27:18 AM 40.6686 -100.8556 231° Southwest 472 543 30,000  Level Denver Center
Fri 12:28:19 AM 40.5897 -100.9828 231° Southwest 469 540 30,000 244 Level Denver Center
Fri 12:29:21 AM 40.4983 -101.1319 231° Southwest 469 540 30,500 829 Climbing Denver Center
Fri 12:30:22 AM 40.4189 -101.2586 231° Southwest 469 540 31,700 738 Climbing Denver Center
Fri 12:31:23 AM 40.3403 -101.3836 230° Southwest 464 534 32,000 146 Climbing Denver Center
Fri 12:32:25 AM 40.2475 -101.5297 230° Southwest 466 536 32,000  Level Denver Center
Fri 12:33:26 AM 40.1686 -101.6544 230° Southwest 465 535 32,000  Level Denver Center
Fri 12:34:27 AM 40.0747 -101.8011 230° Southwest 471 542 32,000  Level Denver Center
Fri 12:35:28 AM 39.9950 -101.9247 230° Southwest 466 536 32,000  Level Denver Center
Fri 12:36:30 AM 39.9153 -102.0503 230° Southwest 468 539 32,000  Level Denver Center
Fri 12:37:31 AM 39.8203 -102.1942 229° Southwest 469 540 32,000  Level Denver Center
Fri 12:38:32 AM 39.7400 -102.3189 230° Southwest 470 541 32,000  Level Denver Center
Fri 12:39:46 AM 39.6608 -102.4425 230° Southwest 466 536 32,000  Level Denver Center
Fri 12:40:47 AM 39.5522 -102.6131 230° Southwest 462 532 32,000  Level Denver Center
Fri 12:41:48 AM 39.4672 -102.7433 230° Southwest 469 540 32,000  Level Denver Center
Fri 12:42:49 AM 39.3833 -102.8714 230° Southwest 469 540 32,000  Level Denver Center
Fri 12:43:50 AM 39.2961 -103.0028 229° Southwest 478 550 32,000  Level Denver Center
Fri 12:44:51 AM 39.2103 -103.1322 229° Southwest 475 547 32,000  Level Denver Center
Fri 12:45:52 AM 39.1250 -103.2614 230° Southwest 474 545 32,000  Level Denver Center
Fri 12:47:17 AM 39.0225 -103.4153 229° Southwest 471 542 32,000  Level Denver Center
Fri 12:48:19 AM 38.9186 -103.5692 229° Southwest 472 543 32,000  Level Denver Center
Fri 12:49:20 AM 38.8236 -103.7083 229° Southwest 474 545 32,000  Level Denver Center
Fri 12:50:21 AM 38.7417 -103.8283 229° Southwest 468 539 32,000  Level Denver Center
Fri 12:51:22 AM 38.6464 -103.9694 229° Southwest 471 542 32,000  Level Denver Center
Fri 12:52:23 AM 38.5650 -104.0889 229° Southwest 467 537 32,000  Level Denver Center
Fri 12:53:23 AM 38.4708 -104.2253 229° Southwest 469 540 32,000  Level Denver Center
Fri 12:54:24 AM 38.3836 -104.3506 228° Southwest 471 542 32,000  Level Denver Center
Fri 12:55:25 AM 38.3033 -104.4678 229° Southwest 472 543 32,000  Level Denver Center
Fri 12:56:26 AM 38.2064 -104.6078 229° Southwest 473 544 32,000  Level Denver Center
Fri 12:57:27 AM 38.1222 -104.7269 228° Southwest 475 547 32,000  Level Denver Center
Fri 12:58:28 AM 38.0383 -104.8464 228° Southwest 475 547 32,000  Level Denver Center
Fri 12:59:29 AM 37.9406 -104.9858 228° Southwest 475 547 32,000  Level Denver Center
Fri 01:00:30 AM 37.8569 -105.1061 229° Southwest 477 549 32,000  Level Denver Center
Fri 01:01:31 AM 37.7861 -105.2061 228° Southwest 478 550 32,000  Level Denver Center
Fri 01:02:32 AM 37.6731 -105.3658 228° Southwest 479 551 32,000  Level Denver Center
Fri 01:03:32 AM 37.5881 -105.4858 228° Southwest 481 554 32,000  Level Denver Center
Fri 01:04:33 AM 37.4969 -105.6094 227° Southwest 482 555 32,000  Level Denver Center
Fri 01:05:34 AM 37.3989 -105.7508 229° Southwest 480 552 32,000  Level Denver Center
Fri 01:06:35 AM 37.3164 -105.8708 229° Southwest 473 544 32,000  Level Denver Center
Fri 01:07:36 AM 37.2417 -105.9972 233° Southwest 472 543 32,000  Level Denver Center
Fri 01:08:36 AM 37.1544 -106.1472 234° Southwest 476 548 32,000  Level Denver Center
Fri 01:09:37 AM 37.0758 -106.2744 232° Southwest 479 551 32,000  Level Denver Center
Fri 01:10:38 AM 37.0022 -106.4039 235° Southwest 478 550 32,000  Level Denver Center
Fri 01:12:03 AM 36.8997 -106.5736 233° Southwest 478 550 32,000  Level Denver Center
Fri 01:13:04 AM 36.8114 -106.7192 233° Southwest 472 543 32,000  Level Denver Center
Fri 01:14:16 AM 36.7247 -106.8653 234° Southwest 469 540 32,000  Level Denver Center
Fri 01:15:17 AM 36.6356 -107.0106 233° Southwest 472 543 32,000  Level Denver Center
Fri 01:16:18 AM 36.5469 -107.1544 233° Southwest 469 540 32,000  Level Denver Center
Fri 01:17:18 AM 36.4719 -107.2794 233° Southwest 470 541 32,000  Level Denver Center
Fri 01:18:19 AM 36.3964 -107.4039 233° Southwest 471 542 32,000  Level Denver Center
Fri 01:18:57 AM 36.3458 -107.4881 233° Southwest 471 542 32,000  Level Albuquerque Center
Fri 01:19:58 AM 36.2572 -107.6342 233° Southwest 475 547 32,000  Level Albuquerque Center
Fri 01:20:59 AM 36.1800 -107.7575 232° Southwest 473 544 32,000  Level Albuquerque Center
Fri 01:21:59 AM 36.0975 -107.8736 229° Southwest 471 542 32,000  Level Albuquerque Center
Fri 01:23:00 AM 35.9894 -108.0022 224° Southwest 476 548 32,000  Level Albuquerque Center
Fri 01:24:01 AM 35.9008 -108.1125 225° Southwest 474 545 32,000  Level Albuquerque Center
Fri 01:25:01 AM 35.8117 -108.2217 225° Southwest 471 542 32,000  Level Albuquerque Center
Fri 01:26:02 AM 35.7208 -108.3294 224° Southwest 471 542 32,000  Level Albuquerque Center
Fri 01:27:03 AM 35.6178 -108.4564 225° Southwest 468 539 32,000  Level Albuquerque Center
Fri 01:28:04 AM 35.5294 -108.5647 225° Southwest 466 536 32,000  Level Albuquerque Center
Fri 01:29:04 AM 35.4406 -108.6711 224° Southwest 465 535 32,000  Level Albuquerque Center
Fri 01:30:05 AM 35.3378 -108.7931 224° Southwest 461 531 32,000  Level Albuquerque Center
Fri 01:31:06 AM 35.2500 -108.8992 225° Southwest 460 529 32,000  Level Albuquerque Center
Fri 01:32:06 AM 35.1617 -109.0047 224° Southwest 461 531 32,000  Level Albuquerque Center
Fri 01:33:07 AM 35.0600 -109.1275 225° Southwest 460 529 32,000  Level Albuquerque Center
Fri 01:34:07 AM 34.9714 -109.2311 224° Southwest 459 528 32,000  Level Albuquerque Center
Fri 01:35:08 AM 34.8836 -109.3381 225° Southwest 462 532 32,000 -148 Level Albuquerque Center
Fri 01:36:09 AM 34.7814 -109.4572 224° Southwest 458 527 31,700 -744 Descending Albuquerque Center
Fri 01:37:09 AM 34.6942 -109.5603 224° Southwest 455 524 30,500 -1,091 Descending Albuquerque Center
Fri 01:38:10 AM 34.6089 -109.6728 227° Southwest 466 536 29,500 -1,082 Descending Albuquerque Center
Fri 01:39:11 AM 34.5256 -109.7853 228° Southwest 468 539 28,300 -1,289 Descending Albuquerque Center
Fri 01:40:11 AM 34.4286 -109.9172 228° Southwest 468 539 26,900 -1,190 Descending Albuquerque Center
Fri 01:41:12 AM 34.3439 -110.0317 228° Southwest 474 545 25,900 -893 Descending Albuquerque Center
Fri 01:42:12 AM 34.2656 -110.1389 229° Southwest 470 541 25,100 -942 Descending Albuquerque Center
Fri 01:43:13 AM 34.1703 -110.2372 221° Southwest 450 518 24,000 -1,537 Descending Albuquerque Center
Fri 01:44:13 AM 34.0567 -110.3417 217° Southwest 433 498 22,000 -1,488 Descending Albuquerque Center
Fri 01:45:14 AM 33.9694 -110.4194 216° Southwest 443 510 21,000 -1,033 Descending Albuquerque Center
Fri 01:46:15 AM 33.8708 -110.5092 217° Southwest 445 512 19,900 -1,041 Descending Albuquerque Center
Fri 01:47:15 AM 33.7844 -110.6058 223° Southwest 435 501 18,900 -1,091 Descending Albuquerque Center
Fri 01:48:16 AM 33.7681 -110.7425 262° West 426 490 17,700 -1,636 Descending Albuquerque Center
Fri 01:49:16 AM 33.7589 -110.8814 265° West 418 481 15,600 -1,884 Descending Albuquerque Center
Fri 01:50:17 AM 33.7242 -111.0064 252° West 401 461 13,900 -1,537 Descending Albuquerque Center
Fri 01:51:17 AM 33.6936 -111.1103 251° West 347 399 12,500 -942 Descending Albuquerque Center
Fri 01:52:18 AM 33.6636 -111.2056 249° West 314 361 12,000 -248 Descending Albuquerque Center
Fri 01:53:18 AM 33.6342 -111.2994 249° West 304 350 12,000 -744 Level Albuquerque Center
Fri 01:54:19 AM 33.6053 -111.3953 250° West 303 349 10,500 -992 Descending Albuquerque Center
Fri 01:55:19 AM 33.5800 -111.4875 252° West 295 339 10,000 -248 Descending Albuquerque Center
Fri 01:56:20 AM 33.5472 -111.5969 250° West 291 335 10,000  Level Albuquerque Center
Fri 01:57:20 AM 33.5478 -111.6931 270° West 289 333 10,000  Level Albuquerque Center
Fri 01:58:21 AM 33.5478 -111.7908 270° West 290 334 10,000  Level Albuquerque Center
Fri 01:59:34 AM 33.5500 -111.9000 271° West 289 333 10,000 -142 Level Phoenix TRACON
Fri 02:00:28 AM 33.5500 -111.9833 270° West 250 288 9,700 -1,211 Descending Phoenix TRACON
Fri 02:01:28 AM 33.5500 -112.0667 270° West 236 272 7,700 -2,300 Descending Phoenix TRACON
Fri 02:02:28 AM 33.5500 -112.1500 270° West 237 273 5,100 -2,100 Descending Phoenix TRACON
Fri 02:03:28 AM 33.5167 -112.2000 231° Southwest 230 265 3,500 -1,050 Descending Phoenix TRACON
Fri 02:04:28 AM 33.4667 -112.2500 220° Southwest 223 257 3,000 -259 Descending Phoenix TRACON
Fri 02:05:24 AM 33.4411 -112.1958 119° Southeast 217 250 3,000 -155 Level Albuquerque Center
Fri 02:06:24 AM 33.4417 -112.1303 89° East 205 236 2,700 -545 Descending Albuquerque Center
Fri 02:07:25 AM 33.4417 -112.0753 90° East 188 216 1,900 -744 Descending Albuquerque Center
Fri 02:08:25 AM 33.4419 -112.0300 90° East 164 189 1,200 -700 Descending Albuquerque Center

Login

Don't have an account? Register now (free) for customized features, flight alerts, and more!